Time;durP1;ratioP1;P1;durP2;ratioP2;P2;SDS_P1;SDS_P2;PMS_P1;PMS_P2;Temp;Humidity;BMP_temperature;BMP_pressure;BME280_temperature;BME280_humidity;BME280_pressure;Samples;Min_cycle;Max_cycle;Signal;HPM_P1;HPM_P2
2022/05/18 00:00:48;;;;;;;6.80;4.97;;;;;;;;;;4995944;28;20733;-73
2022/05/18 00:03:18;;;;;;;6.63;4.60;;;;;;;;;;4995865;28;20208;-73
2022/05/18 00:05:47;;;;;;;5.70;5.20;;;;;;;;;;4990696;28;20681;-72
2022/05/18 00:08:17;;;;;;;5.80;5.10;;;;;;;;;;4976493;28;20310;-72
2022/05/18 00:10:47;;;;;;;6.87;5.63;;;;;;;;;;4976695;28;20213;-72
2022/05/18 00:13:16;;;;;;;5.20;4.70;;;;;;;;;;4976080;28;20213;-72
2022/05/18 00:15:45;;;;;;;6.97;5.30;;;;;;;;;;4977866;28;20214;-72
2022/05/18 00:18:14;;;;;;;5.87;4.53;;;;;;;;;;4995741;28;20655;-72
2022/05/18 00:20:43;;;;;;;6.67;4.90;;;;;;;;;;4994560;28;20728;-71
2022/05/18 00:23:11;;;;;;;6.10;4.97;;;;;;;;;;4994800;28;20216;-73
2022/05/18 00:25:42;;;;;;;6.77;5.27;;;;;;;;;;4993409;28;20363;-73
2022/05/18 00:28:10;;;;;;;6.37;5.00;;;;;;;;;;4976106;28;20234;-72
2022/05/18 00:30:40;;;;;;;5.47;4.97;;;;;;;;;;4976302;28;20202;-72
2022/05/18 00:33:09;;;;;;;6.50;5.30;;;;;;;;;;4981326;28;20201;-72
2022/05/18 00:35:37;;;;;;;6.60;5.80;;;;;;;;;;4994549;28;20205;-73
2022/05/18 00:38:07;;;;;;;8.17;5.07;;;;;;;;;;4995475;28;20237;-71
2022/05/18 00:40:36;;;;;;;5.63;5.00;;;;;;;;;;4995578;28;20213;-71
2022/05/18 00:43:09;;;;;;;6.43;5.03;;;;;;;;;;4995368;28;20201;-72
2022/05/18 00:45:37;;;;;;;6.43;5.10;;;;;;;;;;4977546;28;20230;-71
2022/05/18 00:48:06;;;;;;;5.60;5.10;;;;;;;;;;4982421;28;20229;-74
2022/05/18 00:50:36;;;;;;;6.20;4.47;;;;;;;;;;4995293;28;20261;-71
2022/05/18 00:53:06;;;;;;;6.73;5.33;;;;;;;;;;4994093;28;20201;-73
2022/05/18 00:55:36;;;;;;;5.70;5.20;;;;;;;;;;4995069;28;20197;-73
2022/05/18 00:58:08;;;;;;;5.90;5.30;;;;;;;;;;4994912;28;20232;-73
2022/05/18 01:00:39;;;;;;;7.00;4.90;;;;;;;;;;4994785;28;20631;-73
2022/05/18 01:03:12;;;;;;;8.20;5.17;;;;;;;;;;4995545;28;20292;-74
2022/05/18 01:05:42;;;;;;;6.77;5.33;;;;;;;;;;4995767;28;20692;-73
2022/05/18 01:08:14;;;;;;;6.47;5.10;;;;;;;;;;4995078;28;20257;-72
2022/05/18 01:10:43;;;;;;;6.90;5.33;;;;;;;;;;4993882;28;20208;-72
2022/05/18 01:13:13;;;;;;;6.90;5.30;;;;;;;;;;4994518;28;20305;-73
2022/05/18 01:15:41;;;;;;;7.43;4.60;;;;;;;;;;4993516;28;20224;-72
2022/05/18 01:18:13;;;;;;;6.23;5.40;;;;;;;;;;4994073;28;20683;-74
2022/05/18 01:20:43;;;;;;;9.03;4.87;;;;;;;;;;4993082;28;20631;-72
2022/05/18 01:23:26;;;;;;;7.83;4.87;;;;;;;;;;4994886;28;20211;-72
2022/05/18 01:25:58;;;;;;;5.83;5.03;;;;;;;;;;4994941;28;20263;-71
2022/05/18 01:28:31;;;;;;;7.03;5.60;;;;;;;;;;4995150;28;20221;-73
2022/05/18 01:31:03;;;;;;;7.53;5.40;;;;;;;;;;4989853;28;20205;-72
2022/05/18 01:33:33;;;;;;;6.70;5.80;;;;;;;;;;4992523;28;20220;-73
2022/05/18 01:36:01;;;;;;;7.00;5.17;;;;;;;;;;5000056;28;20283;-73
2022/05/18 01:38:31;;;;;;;8.00;5.10;;;;;;;;;;4994032;28;20835;-72
2022/05/18 01:41:04;;;;;;;6.73;4.77;;;;;;;;;;4992735;28;20242;-72
2022/05/18 01:43:37;;;;;;;6.43;5.10;;;;;;;;;;4994757;28;20197;-73
2022/05/18 01:46:06;;;;;;;7.90;5.43;;;;;;;;;;4993220;28;20628;-72
2022/05/18 01:48:36;;;;;;;9.03;5.53;;;;;;;;;;4998671;28;20244;-73
2022/05/18 01:51:06;;;;;;;5.90;5.30;;;;;;;;;;4987142;28;20284;-72
2022/05/18 01:53:35;;;;;;;6.03;5.43;;;;;;;;;;4989840;28;20292;-73
2022/05/18 01:56:08;;;;;;;6.60;5.40;;;;;;;;;;4993556;28;20704;-72
2022/05/18 01:58:38;;;;;;;7.93;5.73;;;;;;;;;;4993601;28;20300;-72
2022/05/18 02:01:06;;;;;;;6.40;5.60;;;;;;;;;;4992495;28;20758;-72
2022/05/18 02:03:35;;;;;;;6.20;5.60;;;;;;;;;;4993699;28;20240;-73
2022/05/18 02:06:03;;;;;;;6.60;6.00;;;;;;;;;;4993382;28;20224;-73
2022/05/18 02:08:32;;;;;;;7.53;5.70;;;;;;;;;;4993553;28;20220;-73
2022/05/18 02:11:01;;;;;;;7.33;5.90;;;;;;;;;;4990275;28;20292;-73
2022/05/18 02:13:29;;;;;;;7.30;5.93;;;;;;;;;;4987592;28;20230;-73
2022/05/18 02:15:59;;;;;;;7.70;5.80;;;;;;;;;;4992896;28;20293;-73
2022/05/18 02:18:28;;;;;;;6.67;5.80;;;;;;;;;;4994026;28;20217;-73
2022/05/18 02:20:57;;;;;;;6.67;5.97;;;;;;;;;;4992945;28;20201;-71
2022/05/18 02:23:25;;;;;;;7.00;5.80;;;;;;;;;;4993270;28;20571;-71
2022/05/18 02:25:54;;;;;;;7.93;5.93;;;;;;;;;;4993003;28;20227;-73
2022/05/18 02:28:23;;;;;;;6.83;6.10;;;;;;;;;;4984043;28;20230;-73
2022/05/18 02:30:51;;;;;;;11.40;6.60;;;;;;;;;;4977130;28;20672;-74
2022/05/18 02:33:21;;;;;;;6.80;6.07;;;;;;;;;;4992899;28;20800;-73
2022/05/18 02:35:49;;;;;;;5.83;5.30;;;;;;;;;;4993281;28;20209;-72
2022/05/18 02:38:18;;;;;;;6.13;5.53;;;;;;;;;;4993454;28;20218;-73
2022/05/18 02:40:46;;;;;;;6.50;5.83;;;;;;;;;;4992746;28;20209;-74
2022/05/18 02:43:14;;;;;;;8.07;5.93;;;;;;;;;;4985737;28;20279;-73
2022/05/18 02:45:43;;;;;;;7.10;6.20;;;;;;;;;;4993993;28;20616;-72
2022/05/18 02:48:11;;;;;;;8.10;6.13;;;;;;;;;;4997517;28;20248;-74
2022/05/18 02:50:44;;;;;;;6.87;5.83;;;;;;;;;;4996765;28;20197;-72
2022/05/18 02:53:13;;;;;;;7.17;5.87;;;;;;;;;;4996869;28;20209;-73
2022/05/18 02:58:27;;;;;;;7.90;5.00;;;;;;;;;;4983172;28;20762;-73
2022/05/18 03:00:56;;;;;;;7.53;5.57;;;;;;;;;;4997025;28;20209;-73
2022/05/18 03:03:24;;;;;;;7.73;5.50;;;;;;;;;;4996581;28;20201;-73
2022/05/18 03:05:54;;;;;;;6.80;5.80;;;;;;;;;;4995816;28;20256;-73
2022/05/18 03:08:23;;;;;;;7.10;5.60;;;;;;;;;;4996743;28;20225;-73
2022/05/18 03:10:51;;;;;;;7.30;5.50;;;;;;;;;;4996237;28;20213;-73
2022/05/18 03:13:19;;;;;;;7.23;5.97;;;;;;;;;;4996928;28;20215;-73
2022/05/18 03:15:48;;;;;;;6.97;5.27;;;;;;;;;;4994996;28;20275;-73
2022/05/18 03:18:17;;;;;;;6.60;5.47;;;;;;;;;;4996829;28;20304;-73
2022/05/18 03:23:36;;;;;;;8.57;5.90;;;;;;;;;;4995804;28;20236;-73
2022/05/18 03:26:06;;;;;;;7.57;5.97;;;;;;;;;;4979679;28;20210;-72
2022/05/18 03:28:35;;;;;;;7.00;6.30;;;;;;;;;;4996563;28;20320;-71
2022/05/18 03:31:03;;;;;;;8.07;6.50;;;;;;;;;;4996734;28;20316;-71
2022/05/18 03:33:33;;;;;;;8.17;5.70;;;;;;;;;;4996722;28;20288;-73
2022/05/18 03:36:01;;;;;;;9.27;6.17;;;;;;;;;;4979407;28;20616;-73
2022/05/18 03:38:30;;;;;;;8.67;6.40;;;;;;;;;;4991807;28;20312;-72
2022/05/18 03:41:00;;;;;;;7.03;5.77;;;;;;;;;;4996195;28;20208;-72
2022/05/18 03:43:29;;;;;;;6.70;5.90;;;;;;;;;;4996014;28;20615;-72
2022/05/18 03:45:59;;;;;;;7.87;5.90;;;;;;;;;;4995878;28;20288;-73
2022/05/18 03:48:28;;;;;;;5.80;5.20;;;;;;;;;;4996111;28;20229;-73
2022/05/18 03:50:58;;;;;;;6.80;5.60;;;;;;;;;;4996197;28;20639;-73
2022/05/18 03:53:27;;;;;;;7.40;5.70;;;;;;;;;;4995938;28;20292;-72
2022/05/18 03:55:56;;;;;;;5.90;5.33;;;;;;;;;;4987628;28;20209;-72
2022/05/18 03:58:26;;;;;;;7.33;5.47;;;;;;;;;;4995618;28;20225;-72
2022/05/18 04:00:55;;;;;;;5.80;5.20;;;;;;;;;;4995699;28;20259;-72
2022/05/18 04:03:26;;;;;;;6.23;5.50;;;;;;;;;;4983713;28;20210;-72
2022/05/18 04:05:55;;;;;;;7.53;5.53;;;;;;;;;;4996206;28;20220;-73
2022/05/18 04:08:23;;;;;;;6.53;5.33;;;;;;;;;;4994753;28;20241;-73
2022/05/18 04:10:52;;;;;;;6.80;5.33;;;;;;;;;;4990040;28;20205;-72
2022/05/18 04:13:24;;;;;;;5.80;5.20;;;;;;;;;;4991863;28;20687;-72
2022/05/18 04:15:55;;;;;;;6.40;5.80;;;;;;;;;;4993938;28;20205;-74
2022/05/18 04:18:24;;;;;;;9.77;5.60;;;;;;;;;;4990580;28;20224;-71
2022/05/18 04:20:53;;;;;;;8.27;6.40;;;;;;;;;;4988106;28;20214;-72
2022/05/18 04:23:23;;;;;;;7.03;6.10;;;;;;;;;;4982313;28;20206;-73
2022/05/18 04:25:51;;;;;;;8.07;6.63;;;;;;;;;;4988317;28;20662;-72
2022/05/18 04:28:20;;;;;;;8.77;5.97;;;;;;;;;;4987828;28;20229;-72
2022/05/18 04:30:49;;;;;;;6.80;6.10;;;;;;;;;;4987296;28;20533;-71
2022/05/18 04:33:21;;;;;;;7.90;6.20;;;;;;;;;;4985060;28;20268;-75
2022/05/18 04:35:50;;;;;;;6.73;6.03;;;;;;;;;;4994478;28;20263;-74
2022/05/18 04:38:21;;;;;;;9.03;6.60;;;;;;;;;;4991585;28;20221;-74
2022/05/18 04:40:55;;;;;;;9.93;6.37;;;;;;;;;;4991462;28;20252;-74
2022/05/18 04:43:24;;;;;;;6.23;5.63;;;;;;;;;;4993695;28;20642;-74
2022/05/18 04:45:52;;;;;;;6.83;6.03;;;;;;;;;;4994836;28;20267;-73
2022/05/18 04:48:24;;;;;;;8.33;6.33;;;;;;;;;;4994276;28;20233;-71
2022/05/18 04:50:53;;;;;;;7.27;6.43;;;;;;;;;;4994224;28;20216;-72
2022/05/18 04:53:21;;;;;;;7.60;6.73;;;;;;;;;;4993394;28;20201;-73
2022/05/18 04:55:51;;;;;;;7.43;6.60;;;;;;;;;;4992621;28;20209;-73
2022/05/18 04:58:20;;;;;;;6.90;6.20;;;;;;;;;;4975681;28;20253;-72
2022/05/18 05:00:52;;;;;;;8.27;6.70;;;;;;;;;;4986962;28;20608;-73
2022/05/18 05:03:22;;;;;;;8.37;6.40;;;;;;;;;;4976376;28;20198;-73
2022/05/18 05:05:52;;;;;;;8.77;6.60;;;;;;;;;;4983078;28;20205;-72
2022/05/18 05:08:21;;;;;;;9.23;6.90;;;;;;;;;;4984501;28;20318;-73
2022/05/18 05:10:50;;;;;;;7.87;7.07;;;;;;;;;;4993856;28;20304;-73
2022/05/18 05:13:18;;;;;;;9.20;6.47;;;;;;;;;;4987476;28;20285;-72
2022/05/18 05:15:47;;;;;;;10.00;7.23;;;;;;;;;;4994353;28;20209;-73
2022/05/18 05:18:16;;;;;;;8.00;7.20;;;;;;;;;;4984441;28;20233;-73
2022/05/18 05:20:46;;;;;;;9.00;7.37;;;;;;;;;;4975394;28;20312;-73
2022/05/18 05:23:15;;;;;;;8.50;7.43;;;;;;;;;;4978200;28;20292;-72
2022/05/18 05:25:45;;;;;;;10.30;7.77;;;;;;;;;;4975150;28;20298;-73
2022/05/18 05:28:14;;;;;;;9.87;7.93;;;;;;;;;;4986854;28;20235;-72
2022/05/18 05:30:43;;;;;;;10.93;8.30;;;;;;;;;;4991899;28;20288;-74
2022/05/18 05:33:12;;;;;;;10.07;8.00;;;;;;;;;;4979131;28;20288;-74
2022/05/18 05:35:41;;;;;;;9.07;8.07;;;;;;;;;;4986143;28;20202;-73
2022/05/18 05:38:13;;;;;;;10.10;8.25;;;;;;;;;;4986870;28;20223;-72
2022/05/18 05:40:41;;;;;;;10.07;7.85;;;;;;;;;;4994288;28;20740;-72
2022/05/18 05:43:11;;;;;;;9.93;8.30;;;;;;;;;;4991765;28;20303;-74
2022/05/18 05:45:40;;;;;;;12.38;7.82;;;;;;;;;;4986213;28;20248;-72
2022/05/18 05:48:10;;;;;;;8.35;7.55;;;;;;;;;;4985661;28;20247;-74
2022/05/18 05:50:38;;;;;;;8.15;7.25;;;;;;;;;;4993553;28;20209;-72
2022/05/18 05:53:07;;;;;;;8.32;7.20;;;;;;;;;;4993586;28;20217;-74
2022/05/18 05:55:37;;;;;;;8.77;7.03;;;;;;;;;;4993561;28;20205;-72
2022/05/18 05:58:06;;;;;;;7.95;6.53;;;;;;;;;;4991740;28;20304;-72
2022/05/18 06:00:35;;;;;;;9.25;7.05;;;;;;;;;;4991730;28;20198;-74
2022/05/18 06:03:03;;;;;;;7.78;6.97;;;;;;;;;;4994135;28;20288;-71
2022/05/18 06:05:32;;;;;;;8.15;7.38;;;;;;;;;;4993973;28;20228;-73
2022/05/18 06:08:01;;;;;;;7.43;6.60;;;;;;;;;;4985035;28;20240;-74
2022/05/18 06:10:30;;;;;;;9.07;7.18;;;;;;;;;;4974134;28;20209;-71
2022/05/18 06:13:00;;;;;;;8.25;7.00;;;;;;;;;;4974285;28;20740;-74
2022/05/18 06:15:28;;;;;;;7.25;6.55;;;;;;;;;;4984150;28;20288;-72
2022/05/18 06:17:57;;;;;;;6.75;6.05;;;;;;;;;;4992423;28;20221;-72
2022/05/18 06:20:25;;;;;;;8.40;6.60;;;;;;;;;;4993119;28;20205;-73
2022/05/18 06:22:54;;;;;;;7.43;6.70;;;;;;;;;;4993625;28;20215;-72
2022/05/18 06:28:16;;;;;;;7.50;6.60;;;;;;;;;;4990663;28;20223;-73
2022/05/18 06:30:45;;;;;;;9.05;6.43;;;;;;;;;;4992882;28;20293;-73
2022/05/18 06:33:14;;;;;;;8.43;6.25;;;;;;;;;;4993475;28;20205;-73
2022/05/18 06:35:44;;;;;;;7.93;6.00;;;;;;;;;;4993509;28;20610;-74
2022/05/18 06:38:13;;;;;;;6.30;5.68;;;;;;;;;;4992511;28;20221;-71
2022/05/18 06:43:30;;;;;;;6.28;5.15;;;;;;;;;;4991781;28;20213;-72
2022/05/18 06:45:59;;;;;;;7.90;5.60;;;;;;;;;;4986461;28;20207;-71
2022/05/18 06:48:29;;;;;;;5.63;4.68;;;;;;;;;;4973242;28;20325;-73
2022/05/18 06:51:14;;;;;;;5.65;4.10;;;;;;;;;;4974205;28;20206;-73
2022/05/18 06:53:42;;;;;;;6.07;4.20;;;;;;;;;;4990303;28;20664;-74
2022/05/18 06:56:11;;;;;;;7.97;4.10;;;;;;;;;;4990578;28;20288;-71
2022/05/18 06:58:41;;;;;;;5.03;4.03;;;;;;;;;;4993517;28;20221;-72
2022/05/18 07:01:15;;;;;;;7.28;4.40;;;;;;;;;;4992777;28;20209;-71
2022/05/18 07:03:44;;;;;;;6.18;4.18;;;;;;;;;;4992907;28;20220;-72
2022/05/18 07:06:13;;;;;;;4.97;4.47;;;;;;;;;;4973983;28;20205;-71
2022/05/18 07:08:42;;;;;;;6.15;4.38;;;;;;;;;;4973927;28;20233;-71
2022/05/18 07:11:11;;;;;;;5.72;3.90;;;;;;;;;;4973855;28;20611;-72
2022/05/18 07:13:40;;;;;;;8.32;3.80;;;;;;;;;;4973598;28;20212;-72
2022/05/18 07:16:09;;;;;;;7.20;4.25;;;;;;;;;;4986883;28;20211;-73
2022/05/18 07:18:38;;;;;;;5.53;3.92;;;;;;;;;;4988212;28;20315;-74
2022/05/18 07:21:07;;;;;;;6.95;3.75;;;;;;;;;;4993273;28;20639;-72
2022/05/18 07:23:36;;;;;;;5.20;3.30;;;;;;;;;;4992959;28;20218;-74
2022/05/18 07:26:05;;;;;;;4.78;3.50;;;;;;;;;;4993031;28;20237;-72
2022/05/18 07:28:33;;;;;;;4.65;3.47;;;;;;;;;;4986100;28;20222;-72
2022/05/18 07:31:05;;;;;;;6.50;3.55;;;;;;;;;;4991346;28;20284;-75
2022/05/18 07:33:33;;;;;;;7.32;3.30;;;;;;;;;;4996180;28;20213;-73
2022/05/18 07:36:02;;;;;;;4.00;3.25;;;;;;;;;;4996634;28;20263;-73
2022/05/18 07:38:31;;;;;;;4.55;3.38;;;;;;;;;;4996399;28;20229;-72
2022/05/18 07:41:08;;;;;;;6.90;3.58;;;;;;;;;;4996687;28;20213;-72
2022/05/18 07:43:37;;;;;;;5.28;3.50;;;;;;;;;;4992775;28;20212;-72
2022/05/18 07:46:07;;;;;;;4.82;3.22;;;;;;;;;;4996403;28;20205;-72
2022/05/18 07:48:36;;;;;;;5.13;3.53;;;;;;;;;;4996126;28;20774;-72
2022/05/18 07:51:05;;;;;;;3.97;3.58;;;;;;;;;;4996427;28;20205;-73
2022/05/18 07:53:33;;;;;;;6.00;3.47;;;;;;;;;;4996297;28;20209;-74
2022/05/18 07:56:02;;;;;;;3.45;3.00;;;;;;;;;;4995686;28;20283;-72
2022/05/18 07:58:30;;;;;;;5.30;3.40;;;;;;;;;;4995588;28;20228;-72
2022/05/18 08:00:59;;;;;;;4.35;3.28;;;;;;;;;;4996218;28;20213;-72
2022/05/18 08:03:31;;;;;;;5.13;3.40;;;;;;;;;;4996091;28;20695;-73
2022/05/18 08:06:01;;;;;;;3.75;3.40;;;;;;;;;;4994776;28;20223;-72
2022/05/18 08:08:29;;;;;;;4.90;3.30;;;;;;;;;;4995705;28;20232;-72
2022/05/18 08:16:31;;;;;;;4.15;3.30;;;;;;;;;;4993945;28;20200;-73
2022/05/18 08:19:02;;;;;;;4.22;3.35;;;;;;;;;;4995564;28;20225;-73
2022/05/18 08:21:30;;;;;;;4.65;3.17;;;;;;;;;;4995743;28;20683;-73
2022/05/18 08:23:59;;;;;;;5.88;3.33;;;;;;;;;;4995557;28;20209;-74
2022/05/18 08:26:27;;;;;;;4.10;3.17;;;;;;;;;;4994838;28;20617;-72
2022/05/18 08:28:56;;;;;;;3.97;3.05;;;;;;;;;;4993761;28;20245;-72
2022/05/18 08:31:26;;;;;;;4.90;2.97;;;;;;;;;;4995615;28;20544;-73
2022/05/18 08:33:55;;;;;;;5.22;2.92;;;;;;;;;;4993824;28;20209;-72
2022/05/18 08:36:26;;;;;;;6.22;3.15;;;;;;;;;;4995575;28;20209;-73
2022/05/18 08:38:55;;;;;;;5.25;3.05;;;;;;;;;;4993682;28;20221;-72
2022/05/18 08:41:25;;;;;;;4.57;2.97;;;;;;;;;;4995309;28;20213;-72
2022/05/18 08:43:55;;;;;;;3.33;3.00;;;;;;;;;;4990809;28;20236;-72
2022/05/18 08:46:30;;;;;;;3.72;2.70;;;;;;;;;;4976555;28;20208;-72
2022/05/18 08:49:01;;;;;;;4.68;2.97;;;;;;;;;;4990436;28;20224;-72
2022/05/18 08:51:39;;;;;;;4.45;3.00;;;;;;;;;;4992430;28;20205;-73
2022/05/18 08:54:14;;;;;;;5.65;2.95;;;;;;;;;;4987132;28;20537;-72
2022/05/18 08:56:44;;;;;;;4.65;3.20;;;;;;;;;;4994008;28;20204;-72
2022/05/18 08:59:16;;;;;;;3.97;3.00;;;;;;;;;;4993422;28;20204;-71
2022/05/18 09:01:46;;;;;;;4.00;3.17;;;;;;;;;;4994538;28;20585;-72
2022/05/18 09:04:16;;;;;;;3.13;2.83;;;;;;;;;;4994456;28;20682;-73
2022/05/18 09:06:49;;;;;;;3.72;2.70;;;;;;;;;;4994053;28;20730;-73
2022/05/18 09:12:08;;;;;;;3.40;2.80;;;;;;;;;;4994913;28;20240;-73
2022/05/18 09:14:38;;;;;;;4.85;3.03;;;;;;;;;;4994615;28;20292;-72
2022/05/18 09:17:12;;;;;;;4.90;2.85;;;;;;;;;;4994002;28;20288;-72
2022/05/18 09:19:48;;;;;;;4.78;3.13;;;;;;;;;;4994553;28;20212;-73
2022/05/18 09:22:24;;;;;;;5.13;3.08;;;;;;;;;;4994593;28;20213;-72
2022/05/18 09:24:59;;;;;;;5.20;3.42;;;;;;;;;;4993973;28;20216;-71
2022/05/18 09:27:35;;;;;;;6.25;2.90;;;;;;;;;;4993698;28;20235;-71
2022/05/18 09:30:10;;;;;;;4.60;2.92;;;;;;;;;;4989495;28;20217;-74
2022/05/18 09:32:47;;;;;;;3.88;3.25;;;;;;;;;;4989768;28;20271;-72
2022/05/18 09:35:30;;;;;;;4.63;2.85;;;;;;;;;;4982718;28;20752;-72
2022/05/18 09:38:03;;;;;;;4.43;2.90;;;;;;;;;;4990758;28;20252;-73
2022/05/18 09:40:34;;;;;;;7.20;3.00;;;;;;;;;;4992627;28;20300;-71
2022/05/18 09:43:07;;;;;;;4.53;2.83;;;;;;;;;;4991362;28;20332;-74
2022/05/18 09:45:38;;;;;;;4.47;3.00;;;;;;;;;;4992430;28;20208;-73
2022/05/18 09:48:09;;;;;;;3.72;2.80;;;;;;;;;;4990806;28;20594;-71
2022/05/18 09:50:39;;;;;;;3.90;2.80;;;;;;;;;;4986309;28;21285;-74
2022/05/18 09:53:10;;;;;;;3.45;3.13;;;;;;;;;;4993365;28;20240;-74
2022/05/18 09:55:38;;;;;;;3.92;2.95;;;;;;;;;;4984404;28;20213;-71
2022/05/18 09:58:09;;;;;;;5.07;2.85;;;;;;;;;;4992882;28;20267;-73
2022/05/18 10:00:39;;;;;;;4.60;3.00;;;;;;;;;;4993693;28;20212;-72
2022/05/18 10:08:52;;;;;;;3.30;2.92;;;;;;;;;;4992290;28;20641;-71
2022/05/18 10:11:23;;;;;;;5.25;2.85;;;;;;;;;;4991452;28;20233;-73
2022/05/18 10:13:56;;;;;;;6.50;3.13;;;;;;;;;;4990584;28;20260;-72
2022/05/18 10:16:32;;;;;;;4.18;3.10;;;;;;;;;;4993434;28;20284;-73
2022/05/18 10:19:01;;;;;;;3.20;2.90;;;;;;;;;;4988586;28;20248;-73
2022/05/18 10:21:35;;;;;;;4.45;2.90;;;;;;;;;;4991421;28;20201;-71
2022/05/18 10:24:26;;;;;;;5.22;3.05;;;;;;;;;;4646421;23;10001962;-72
2022/05/18 10:27:09;;;;;;;5.43;3.00;;;;;;;;;;4979119;28;20293;-73
2022/05/18 10:29:38;;;;;;;4.07;2.95;;;;;;;;;;4987742;28;20204;-72
2022/05/18 10:32:09;;;;;;;4.22;2.80;;;;;;;;;;4989876;28;20229;-71
2022/05/18 10:34:44;;;;;;;3.28;2.88;;;;;;;;;;4980738;28;20201;-73
2022/05/18 10:37:14;;;;;;;3.42;2.95;;;;;;;;;;4981848;28;20711;-70
2022/05/18 10:39:46;;;;;;;3.22;2.42;;;;;;;;;;4980826;28;20271;-72
2022/05/18 10:42:17;;;;;;;2.90;2.67;;;;;;;;;;4977632;28;20209;-72
2022/05/18 10:44:46;;;;;;;4.22;2.95;;;;;;;;;;4980809;28;20209;-74
2022/05/18 10:47:19;;;;;;;5.32;3.08;;;;;;;;;;4976666;28;20310;-73
2022/05/18 10:49:48;;;;;;;5.10;2.67;;;;;;;;;;4981477;28;20209;-72
2022/05/18 10:52:18;;;;;;;6.35;3.00;;;;;;;;;;4977299;28;20616;-73
2022/05/18 10:54:56;;;;;;;3.15;2.88;;;;;;;;;;4981756;28;20268;-71
2022/05/18 10:57:33;;;;;;;5.38;2.65;;;;;;;;;;4990010;28;20235;-72
2022/05/18 11:00:06;;;;;;;5.03;2.80;;;;;;;;;;4980217;28;20206;-73
2022/05/18 11:02:39;;;;;;;3.90;3.00;;;;;;;;;;4980986;28;20268;-73
2022/05/18 11:05:12;;;;;;;5.00;3.20;;;;;;;;;;4974809;28;20264;-73
2022/05/18 11:07:41;;;;;;;4.28;2.85;;;;;;;;;;4983344;28;20608;-71
2022/05/18 11:10:12;;;;;;;4.75;3.35;;;;;;;;;;4982711;28;20285;-72
2022/05/18 11:12:46;;;;;;;5.80;3.17;;;;;;;;;;4977146;28;20230;-73
2022/05/18 11:15:17;;;;;;;3.55;2.78;;;;;;;;;;4980047;28;20210;-73
2022/05/18 11:17:52;;;;;;;4.72;3.13;;;;;;;;;;4990990;28;20312;-72
2022/05/18 11:20:26;;;;;;;3.65;3.03;;;;;;;;;;4987057;28;20727;-72
2022/05/18 11:22:59;;;;;;;3.88;2.88;;;;;;;;;;4995062;28;20201;-74
2022/05/18 11:25:36;;;;;;;3.40;2.90;;;;;;;;;;4982851;28;20267;-72
2022/05/18 11:28:28;;;;;;;5.78;3.03;;;;;;;;;;4992086;28;20268;-72
2022/05/18 11:31:04;;;;;;;4.82;3.05;;;;;;;;;;4991835;28;20260;-72
2022/05/18 11:33:38;;;;;;;6.60;3.30;;;;;;;;;;4994251;28;20202;-73
2022/05/18 11:36:10;;;;;;;4.70;2.80;;;;;;;;;;4975675;28;20633;-72
2022/05/18 11:38:57;;;;;;;3.80;2.90;;;;;;;;;;4977584;28;20271;-74
2022/05/18 11:41:34;;;;;;;6.13;3.20;;;;;;;;;;5029070;22;20208;-74
2022/05/18 11:44:04;;;;;;;4.53;2.92;;;;;;;;;;4987978;28;20272;-72
2022/05/18 11:46:49;;;;;;;4.00;3.05;;;;;;;;;;4995582;28;20259;-75
2022/05/18 11:49:20;;;;;;;4.32;3.00;;;;;;;;;;4974622;28;20213;-71
2022/05/18 11:51:56;;;;;;;5.25;2.90;;;;;;;;;;4975006;28;20767;-74
2022/05/18 11:54:42;;;;;;;3.35;3.05;;;;;;;;;;4974768;28;20206;-72
2022/05/18 11:57:17;;;;;;;3.30;2.80;;;;;;;;;;4967928;28;20684;-73
2022/05/18 11:59:57;;;;;;;4.13;3.00;;;;;;;;;;4976150;28;20263;-71
2022/05/18 12:02:37;;;;;;;3.33;3.03;;;;;;;;;;4976484;28;20653;-73
2022/05/18 12:11:21;;;;;;;3.67;2.78;;;;;;;;;;6126204;23;20184;-73
2022/05/18 12:13:57;;;;;;;6.18;2.58;;;;;;;;;;4255143;28;10000838;-74
2022/05/18 12:16:28;;;;;;;4.30;2.75;;;;;;;;;;4941604;29;20218;-73
2022/05/18 12:19:00;;;;;;;5.45;3.20;;;;;;;;;;4936194;28;20233;-73
2022/05/18 12:21:31;;;;;;;4.25;2.63;;;;;;;;;;4938411;29;20286;-73
2022/05/18 12:24:01;;;;;;;5.60;2.90;;;;;;;;;;4937879;29;20290;-72
2022/05/18 12:26:31;;;;;;;4.07;2.78;;;;;;;;;;4937887;29;20199;-72
2022/05/18 12:29:03;;;;;;;4.20;2.80;;;;;;;;;;4937968;29;20698;-71
2022/05/18 12:31:32;;;;;;;2.70;2.50;;;;;;;;;;4937163;29;20281;-73
2022/05/18 12:34:03;;;;;;;3.35;2.50;;;;;;;;;;4936745;29;20218;-72
2022/05/18 12:36:34;;;;;;;4.07;2.53;;;;;;;;;;4936929;29;20275;-72
2022/05/18 12:39:09;;;;;;;2.92;2.60;;;;;;;;;;4937445;29;20231;-71
2022/05/18 12:41:40;;;;;;;4.15;2.65;;;;;;;;;;4937062;29;20567;-73
2022/05/18 12:44:11;;;;;;;3.08;2.30;;;;;;;;;;4932546;29;20204;-72
2022/05/18 12:46:44;;;;;;;3.60;2.10;;;;;;;;;;4933731;29;20274;-73
2022/05/18 12:49:17;;;;;;;3.25;2.20;;;;;;;;;;4936169;29;20223;-71
2022/05/18 12:51:53;;;;;;;2.60;2.40;;;;;;;;;;4934701;29;20717;-73
2022/05/18 12:54:23;;;;;;;3.03;2.72;;;;;;;;;;4933766;29;20727;-72
2022/05/18 12:56:53;;;;;;;4.15;2.60;;;;;;;;;;4934337;29;20263;-71
2022/05/18 13:07:51;;;;;;;2.70;2.30;;;;;;;;;;5683773;23;20244;-72
2022/05/18 13:10:25;;;;;;;4.55;2.30;;;;;;;;;;4655955;28;10000105;-75
2022/05/18 13:12:57;;;;;;;4.00;2.55;;;;;;;;;;5003530;28;20240;-73
2022/05/18 13:15:43;;;;;;;4.00;2.53;;;;;;;;;;5001376;28;20592;-74
2022/05/18 13:18:13;;;;;;;6.05;2.55;;;;;;;;;;4987262;28;20635;-74
2022/05/18 13:20:47;;;;;;;3.35;2.30;;;;;;;;;;4989711;28;20197;-75
2022/05/18 13:23:25;;;;;;;3.05;2.60;;;;;;;;;;4989671;28;20204;-72
2022/05/18 13:25:54;;;;;;;4.10;2.60;;;;;;;;;;4988307;28;20197;-72
2022/05/18 13:28:30;;;;;;;4.03;2.40;;;;;;;;;;4989056;28;20228;-73
2022/05/18 13:31:00;;;;;;;3.88;2.35;;;;;;;;;;4991266;28;20264;-73
2022/05/18 13:33:42;;;;;;;3.08;2.40;;;;;;;;;;4987459;28;20292;-74
2022/05/18 13:36:11;;;;;;;2.40;2.20;;;;;;;;;;4990996;28;20243;-73
2022/05/18 13:38:42;;;;;;;4.28;2.35;;;;;;;;;;4983242;28;20236;-72
2022/05/18 13:41:15;;;;;;;3.80;2.53;;;;;;;;;;4982202;28;20232;-73
2022/05/18 13:43:45;;;;;;;4.70;2.55;;;;;;;;;;4988384;28;20232;-73
2022/05/18 13:46:16;;;;;;;3.38;2.08;;;;;;;;;;4990720;28;20197;-74
2022/05/18 13:48:45;;;;;;;2.60;2.40;;;;;;;;;;4990478;28;20232;-73
2022/05/18 13:51:19;;;;;;;5.78;2.25;;;;;;;;;;4989531;28;20217;-73
2022/05/18 13:53:52;;;;;;;2.90;2.28;;;;;;;;;;4988646;28;20212;-72
2022/05/18 13:56:23;;;;;;;3.40;2.30;;;;;;;;;;4990078;28;20212;-72
2022/05/18 13:58:56;;;;;;;3.30;2.33;;;;;;;;;;4989570;28;20288;-74
2022/05/18 14:01:33;;;;;;;4.07;2.47;;;;;;;;;;4986432;28;20823;-75
2022/05/18 14:04:02;;;;;;;2.50;2.20;;;;;;;;;;4985984;28;20206;-73
2022/05/18 14:06:32;;;;;;;4.13;2.53;;;;;;;;;;4977591;28;20298;-71
2022/05/18 14:09:13;;;;;;;2.40;2.20;;;;;;;;;;4983971;28;20245;-71
2022/05/18 14:11:42;;;;;;;3.63;2.40;;;;;;;;;;4989935;28;20205;-71
2022/05/18 14:14:18;;;;;;;5.20;2.65;;;;;;;;;;4988775;28;20205;-72
2022/05/18 14:16:56;;;;;;;2.85;2.20;;;;;;;;;;4990322;28;20214;-73
2022/05/18 14:19:47;;;;;;;4.07;2.67;;;;;;;;;;4981965;28;20205;-73
2022/05/18 14:22:16;;;;;;;3.05;2.75;;;;;;;;;;4981289;28;20565;-71
2022/05/18 14:24:52;;;;;;;3.20;2.50;;;;;;;;;;4986431;28;20201;-73
2022/05/18 14:27:24;;;;;;;5.45;2.65;;;;;;;;;;4989553;28;20307;-74
2022/05/18 14:29:55;;;;;;;3.65;2.45;;;;;;;;;;4989951;28;20339;-73
2022/05/18 14:32:27;;;;;;;3.15;2.40;;;;;;;;;;4985117;28;20716;-73
2022/05/18 14:34:58;;;;;;;3.88;2.30;;;;;;;;;;4992871;28;20197;-71
2022/05/18 14:37:28;;;;;;;3.88;2.55;;;;;;;;;;4993212;28;20287;-74
2022/05/18 14:39:59;;;;;;;3.65;2.63;;;;;;;;;;4991397;28;20268;-72
2022/05/18 14:42:29;;;;;;;2.65;2.40;;;;;;;;;;4994893;28;20711;-74
2022/05/18 14:45:01;;;;;;;3.60;2.70;;;;;;;;;;4996029;28;20240;-72
2022/05/18 14:47:32;;;;;;;3.15;2.38;;;;;;;;;;4996893;28;20241;-72
2022/05/18 14:50:08;;;;;;;3.00;2.38;;;;;;;;;;4994966;28;20315;-72
2022/05/18 14:52:38;;;;;;;3.75;2.60;;;;;;;;;;4992057;28;20291;-72
2022/05/18 14:55:10;;;;;;;4.15;2.65;;;;;;;;;;4997200;28;20566;-73
2022/05/18 14:57:42;;;;;;;3.65;2.53;;;;;;;;;;4993752;28;20236;-71
2022/05/18 15:00:15;;;;;;;2.83;2.47;;;;;;;;;;4992816;28;20209;-73
2022/05/18 15:02:44;;;;;;;2.97;2.63;;;;;;;;;;4996576;28;20204;-73
2022/05/18 15:05:17;;;;;;;4.65;2.40;;;;;;;;;;4995806;28;20567;-71
2022/05/18 15:07:47;;;;;;;4.38;2.40;;;;;;;;;;4991805;28;20256;-73
2022/05/18 15:10:21;;;;;;;4.18;2.67;;;;;;;;;;4999188;28;20201;-72
2022/05/18 15:12:54;;;;;;;3.83;3.00;;;;;;;;;;4994054;28;20778;-71
2022/05/18 15:18:17;;;;;;;3.85;2.70;;;;;;;;;;4994022;28;20229;-74
2022/05/18 15:23:31;;;;;;;3.13;2.80;;;;;;;;;;4985182;28;20308;-72
2022/05/18 15:26:02;;;;;;;4.97;2.78;;;;;;;;;;4985442;28;20259;-72
2022/05/18 15:28:39;;;;;;;4.25;3.00;;;;;;;;;;4990579;28;20225;-71
2022/05/18 15:31:12;;;;;;;3.80;2.60;;;;;;;;;;4995870;28;20735;-72
2022/05/18 15:33:44;;;;;;;5.28;3.05;;;;;;;;;;4991329;28;20220;-74
2022/05/18 15:36:13;;;;;;;3.22;2.70;;;;;;;;;;4985268;28;20656;-72
2022/05/18 15:38:42;;;;;;;4.20;2.80;;;;;;;;;;4988568;28;20225;-71
2022/05/18 15:41:14;;;;;;;4.82;3.03;;;;;;;;;;4995844;28;20221;-73
2022/05/18 15:43:42;;;;;;;5.13;3.15;;;;;;;;;;4989787;28;20744;-73
2022/05/18 15:46:12;;;;;;;4.10;2.90;;;;;;;;;;4989583;28;20206;-74
2022/05/18 15:48:40;;;;;;;4.15;3.00;;;;;;;;;;4990777;28;20221;-73
2022/05/18 15:51:09;;;;;;;4.80;3.47;;;;;;;;;;4989800;28;20644;-75